Time;durP1;ratioP1;P1;durP2;ratioP2;P2;SDS_P1;SDS_P2;PMS_P1;PMS_P2;Temp;Humidity;BMP_temperature;BMP_pressure;BME280_temperature;BME280_humidity;BME280_pressure;Samples;Min_cycle;Max_cycle;Signal;HPM_P1;HPM_P2
2022/12/21 00:01:21;;;;;;;3.27;1.47;;;8.10;99.90;;;;;;4135227;28;20193;-65
2022/12/21 00:03:22;;;;;;;5.57;2.17;;;8.00;99.90;;;;;;4142793;28;20182;-65
2022/12/21 00:05:23;;;;;;;1.87;1.50;;;7.80;99.90;;;;;;4128020;28;20182;-66
2022/12/21 00:07:24;;;;;;;3.07;1.40;;;7.90;99.90;;;;;;4127144;28;20686;-65
2022/12/21 00:09:25;;;;;;;4.70;1.37;;;8.00;99.90;;;;;;4128317;28;20190;-66
2022/12/21 00:11:27;;;;;;;1.63;1.20;;;8.00;99.90;;;;;;4128256;28;20178;-65
2022/12/21 00:13:29;;;;;;;2.23;1.60;;;8.10;99.90;;;;;;4145867;28;20258;-65
2022/12/21 00:15:30;;;;;;;4.17;1.60;;;8.00;99.90;;;;;;4128478;28;20194;-65
2022/12/21 00:17:31;;;;;;;1.57;1.43;;;8.00;99.90;;;;;;4126663;28;20219;-66
2022/12/21 00:19:31;;;;;;;2.33;1.60;;;8.00;99.90;;;;;;4146221;28;20177;-66
2022/12/21 00:21:36;;;;;;;4.80;1.87;;;8.10;99.90;;;;;;4145811;28;20181;-65
2022/12/21 00:23:37;;;;;;;1.97;1.50;;;8.10;99.90;;;;;;4128247;28;20253;-66
2022/12/21 00:25:38;;;;;;;3.73;1.40;;;8.20;99.90;;;;;;4145807;28;20181;-66
2022/12/21 00:27:38;;;;;;;4.27;1.60;;;8.10;99.90;;;;;;4145113;28;20672;-65
2022/12/21 00:29:39;;;;;;;2.10;1.37;;;8.10;99.90;;;;;;4145689;28;20658;-66
2022/12/21 00:31:40;;;;;;;3.87;1.40;;;8.10;99.90;;;;;;4145705;28;20220;-65
2022/12/21 00:33:42;;;;;;;2.57;1.33;;;8.20;99.90;;;;;;4145699;28;20185;-66
2022/12/21 00:35:51;;;;;;;4.30;1.50;;;8.30;99.90;;;;;;4145790;28;20704;-65
2022/12/21 00:37:51;;;;;;;3.57;1.57;;;8.20;99.90;;;;;;4127282;28;20236;-66
2022/12/21 00:39:52;;;;;;;3.60;1.20;;;8.10;99.90;;;;;;4145433;28;20254;-66
2022/12/21 00:41:53;;;;;;;2.80;1.67;;;8.00;99.90;;;;;;4145747;28;20189;-64
2022/12/21 00:43:55;;;;;;;2.10;1.73;;;8.00;99.90;;;;;;4137961;28;20267;-66
2022/12/21 00:45:55;;;;;;;3.77;1.57;;;8.20;99.90;;;;;;4112173;28;20190;-66
2022/12/21 00:47:56;;;;;;;2.67;1.50;;;8.30;99.90;;;;;;4131770;28;20206;-65
2022/12/21 00:49:57;;;;;;;6.00;2.20;;;8.30;99.90;;;;;;4135036;28;20185;-64
2022/12/21 00:51:57;;;;;;;3.03;1.60;;;8.20;99.90;;;;;;4133140;28;20287;-66
2022/12/21 00:53:59;;;;;;;2.23;1.60;;;8.20;99.90;;;;;;4132885;28;20195;-65
2022/12/21 00:56:01;;;;;;;1.40;1.30;;;8.10;99.90;;;;;;4115503;28;20191;-65
2022/12/21 00:58:02;;;;;;;2.43;1.50;;;8.00;99.90;;;;;;4132319;28;20630;-67
2022/12/21 01:00:04;;;;;;;3.87;1.60;;;8.20;99.90;;;;;;4132999;28;20236;-65
2022/12/21 01:02:04;;;;;;;3.60;1.60;;;8.10;99.90;;;;;;4109217;28;20187;-65
2022/12/21 01:04:05;;;;;;;3.43;1.60;;;8.00;99.90;;;;;;4116377;28;20582;-65
2022/12/21 01:06:12;;;;;;;4.30;3.97;;;7.80;99.90;;;;;;4099348;29;20188;-64
2022/12/21 01:08:13;;;;;;;2.90;1.83;;;7.80;99.90;;;;;;4098516;28;20257;-65
2022/12/21 01:10:14;;;;;;;3.87;1.63;;;7.80;99.90;;;;;;4099341;29;20619;-65
2022/12/21 01:12:15;;;;;;;4.93;1.50;;;7.80;99.90;;;;;;4116175;28;20599;-65
2022/12/21 01:14:15;;;;;;;4.40;1.70;;;7.90;99.90;;;;;;4116246;28;20194;-64
2022/12/21 01:16:24;;;;;;;3.33;1.70;;;8.00;99.90;;;;;;4116225;28;20233;-65
2022/12/21 01:18:25;;;;;;;1.70;1.60;;;8.10;99.90;;;;;;4116021;28;20202;-65
2022/12/21 01:20:26;;;;;;;3.40;1.67;;;8.10;99.90;;;;;;4116507;28;20265;-65
2022/12/21 01:22:26;;;;;;;3.67;1.50;;;8.10;99.90;;;;;;4116393;28;20191;-65
2022/12/21 01:24:27;;;;;;;1.70;1.40;;;8.10;99.90;;;;;;4116208;28;20244;-66
2022/12/21 01:26:29;;;;;;;2.93;1.77;;;8.10;99.90;;;;;;4082558;29;20190;-64
2022/12/21 01:28:29;;;;;;;3.73;1.70;;;7.90;99.90;;;;;;4098873;29;20203;-65
2022/12/21 01:30:30;;;;;;;1.63;1.30;;;7.80;99.90;;;;;;4116006;28;20191;-64
2022/12/21 01:32:31;;;;;;;2.13;1.60;;;7.90;99.90;;;;;;4116353;28;20190;-65
2022/12/21 01:34:31;;;;;;;3.07;1.70;;;8.00;99.90;;;;;;4115880;28;20210;-65
2022/12/21 01:36:32;;;;;;;2.73;1.40;;;7.90;99.90;;;;;;4115415;28;20190;-64
2022/12/21 01:38:34;;;;;;;8.37;1.50;;;8.00;99.90;;;;;;4116347;28;20214;-64
2022/12/21 01:40:35;;;;;;;5.03;1.60;;;7.90;99.90;;;;;;4115958;28;20313;-64
2022/12/21 01:42:36;;;;;;;1.77;1.67;;;7.90;99.90;;;;;;4116103;28;20680;-65
2022/12/21 01:45:11;;;;;;;2.33;1.30;;;7.90;99.90;;;;;;4115930;28;20257;-65
2022/12/21 01:47:26;;;;;;;5.60;1.50;;;7.90;99.90;;;;;;4097944;29;20352;-65
2022/12/21 01:49:31;;;;;;;2.73;1.40;;;7.80;99.90;;;;;;4115895;28;20623;-65
2022/12/21 01:51:36;;;;;;;2.07;1.37;;;7.80;99.90;;;;;;4098563;29;20187;-65
2022/12/21 01:53:44;;;;;;;1.60;1.40;;;7.80;99.90;;;;;;4115951;28;20190;-65
2022/12/21 01:55:48;;;;;;;2.40;1.30;;;7.80;99.90;;;;;;4098926;29;20203;-65
2022/12/21 01:57:49;;;;;;;1.50;1.20;;;7.90;99.90;;;;;;4098163;29;20238;-65
2022/12/21 01:59:56;;;;;;;2.30;1.60;;;7.90;99.90;;;;;;4115022;28;20189;-65
2022/12/21 02:02:00;;;;;;;2.57;1.10;;;7.90;99.90;;;;;;4116046;28;20167;-65
2022/12/21 02:04:02;;;;;;;5.57;2.00;;;7.90;99.90;;;;;;4115699;28;20217;-64
2022/12/21 02:06:17;;;;;;;1.57;1.20;;;7.90;99.90;;;;;;4115792;28;20191;-65
2022/12/21 02:08:17;;;;;;;5.10;1.50;;;7.80;99.90;;;;;;4097691;29;20215;-64
2022/12/21 02:10:19;;;;;;;1.83;1.10;;;7.80;99.90;;;;;;4115679;28;20187;-65
2022/12/21 02:12:21;;;;;;;1.40;1.30;;;7.90;99.90;;;;;;4098432;29;20235;-66
2022/12/21 02:14:21;;;;;;;2.60;1.17;;;7.90;99.90;;;;;;4115383;28;20668;-65
2022/12/21 02:16:53;;;;;;;2.60;1.50;;;7.90;99.90;;;;;;4097617;29;20224;-65
2022/12/21 02:19:26;;;;;;;5.43;5.13;;;8.00;99.90;;;;;;4075133;28;20648;-66
2022/12/21 02:21:30;;;;;;;5.23;1.40;;;7.90;99.90;;;;;;4115424;28;20263;-66
2022/12/21 02:24:07;;;;;;;3.33;2.83;;;7.90;99.90;;;;;;4098076;29;20184;-66
2022/12/21 02:26:35;;;;;;;2.43;1.20;;;7.90;99.90;;;;;;4115423;28;20623;-65
2022/12/21 02:29:14;;;;;;;4.07;1.73;;;7.90;99.90;;;;;;4082284;29;20215;-66
2022/12/21 02:31:25;;;;;;;3.30;1.27;;;7.90;99.90;;;;;;4115303;28;20213;-65
2022/12/21 02:33:48;;;;;;;3.30;1.60;;;7.90;99.90;;;;;;4097776;29;20662;-65
2022/12/21 02:36:00;;;;;;;1.83;1.20;;;7.90;99.90;;;;;;4097941;29;20180;-64
2022/12/21 02:38:30;;;;;;;1.37;1.27;;;7.80;99.90;;;;;;4114432;28;20214;-63
2022/12/21 02:41:01;;;;;;;2.73;1.50;;;7.80;99.90;;;;;;4115081;28;20179;-68
2022/12/21 02:46:06;;;;;;;3.13;2.93;;;7.80;99.90;;;;;;4116492;28;20672;-64
2022/12/21 02:48:34;;;;;;;1.73;1.63;;;7.80;99.90;;;;;;4133124;28;20201;-65
2022/12/21 02:50:39;;;;;;;2.20;2.10;;;7.90;99.90;;;;;;4134315;28;20154;-63
2022/12/21 02:52:55;;;;;;;1.70;1.33;;;7.80;99.90;;;;;;4097672;29;20183;-63
2022/12/21 02:55:00;;;;;;;1.70;1.40;;;7.80;99.90;;;;;;4112248;28;20229;-65
2022/12/21 02:57:01;;;;;;;2.20;2.03;;;7.70;99.90;;;;;;4130131;28;20273;-63
2022/12/21 02:59:03;;;;;;;1.57;1.47;;;7.70;99.90;;;;;;4131143;28;20193;-64
2022/12/21 03:01:29;;;;;;;9.50;2.67;;;7.70;99.90;;;;;;4131048;28;20181;-63
2022/12/21 03:04:01;;;;;;;1.97;1.23;;;7.80;99.90;;;;;;4130907;28;20232;-63
2022/12/21 03:06:35;;;;;;;2.53;1.50;;;7.80;99.90;;;;;;4130873;28;20600;-64
2022/12/21 03:09:06;;;;;;;1.93;1.47;;;7.80;99.90;;;;;;4130499;28;20217;-64
2022/12/21 03:11:08;;;;;;;2.50;1.50;;;7.80;99.90;;;;;;4130648;28;20525;-64
2022/12/21 03:13:49;;;;;;;1.70;1.60;;;7.80;99.90;;;;;;4130594;28;20730;-63
2022/12/21 03:16:02;;;;;;;1.40;1.20;;;7.90;99.90;;;;;;4130845;28;20220;-64
2022/12/21 03:18:26;;;;;;;2.10;1.50;;;7.80;99.90;;;;;;4122394;28;20319;-64
2022/12/21 03:20:59;;;;;;;2.23;2.07;;;7.80;99.90;;;;;;4129998;28;20685;-63
2022/12/21 03:23:25;;;;;;;1.90;1.40;;;7.80;99.90;;;;;;4130322;28;20278;-64
2022/12/21 03:25:36;;;;;;;2.00;1.77;;;7.80;99.90;;;;;;4130499;28;20213;-64
2022/12/21 03:27:44;;;;;;;1.47;1.20;;;7.90;99.90;;;;;;4112477;28;20257;-64
2022/12/21 03:29:53;;;;;;;1.80;1.13;;;8.00;99.90;;;;;;4113369;28;20252;-65
2022/12/21 03:32:01;;;;;;;2.43;1.30;;;7.90;99.90;;;;;;4113331;28;20196;-63
2022/12/21 03:34:10;;;;;;;2.10;1.40;;;7.90;99.90;;;;;;4128969;28;20196;-64
2022/12/21 03:36:26;;;;;;;1.57;1.43;;;8.00;99.90;;;;;;4116314;28;20189;-63
2022/12/21 03:38:34;;;;;;;1.67;1.50;;;8.10;99.90;;;;;;4130617;28;20675;-64
2022/12/21 03:40:39;;;;;;;1.97;1.60;;;8.00;99.90;;;;;;4129186;28;20173;-64
2022/12/21 03:42:47;;;;;;;1.70;1.20;;;8.00;99.90;;;;;;4112543;28;20179;-64
2022/12/21 03:45:11;;;;;;;4.37;3.03;;;8.00;99.90;;;;;;4112953;28;20258;-64
2022/12/21 03:47:26;;;;;;;2.80;1.33;;;8.00;99.90;;;;;;4128324;28;20579;-64
2022/12/21 03:49:44;;;;;;;1.30;1.20;;;8.10;99.90;;;;;;4128840;28;20169;-63
2022/12/21 03:51:53;;;;;;;2.53;2.33;;;8.10;99.90;;;;;;4129907;28;20648;-64
2022/12/21 03:54:41;;;;;;;1.20;1.10;;;8.00;99.90;;;;;;4113171;28;20175;-64
2022/12/21 03:56:42;;;;;;;1.43;1.33;;;8.10;99.90;;;;;;4103757;28;20202;-64
2022/12/21 03:58:43;;;;;;;1.53;1.10;;;8.00;99.90;;;;;;4112697;28;20264;-64
2022/12/21 04:01:03;;;;;;;2.47;1.60;;;8.00;99.90;;;;;;4112747;28;20187;-64
2022/12/21 04:03:27;;;;;;;3.20;1.50;;;8.00;99.90;;;;;;4112592;28;20186;-65
2022/12/21 04:05:49;;;;;;;2.13;1.30;;;8.00;99.90;;;;;;4112575;28;20206;-64
2022/12/21 04:07:51;;;;;;;1.23;1.10;;;8.00;99.90;;;;;;4127802;28;20251;-64
2022/12/21 04:10:02;;;;;;;1.53;1.30;;;8.10;99.90;;;;;;4128706;28;20209;-64
2022/12/21 04:14:24;;;;;;;1.23;1.03;;;8.10;99.90;;;;;;4128773;28;20233;-64
2022/12/21 04:16:25;;;;;;;1.90;1.00;;;8.10;99.90;;;;;;4129296;28;20569;-64
2022/12/21 04:20:45;;;;;;;4.37;1.30;;;8.00;99.90;;;;;;4129672;28;20543;-63
2022/12/21 04:29:44;;;;;;;2.50;1.23;;;8.00;99.90;;;;;;4129818;28;20246;-64
2022/12/21 04:31:44;;;;;;;1.37;1.23;;;8.10;99.90;;;;;;4112204;28;20203;-64
2022/12/21 04:33:45;;;;;;;1.40;1.17;;;8.00;99.90;;;;;;4129708;28;20221;-64
2022/12/21 04:38:06;;;;;;;2.63;1.10;;;8.10;99.90;;;;;;4127772;28;20252;-63
2022/12/21 04:40:08;;;;;;;1.67;1.20;;;8.20;99.90;;;;;;4129149;28;20178;-64
2022/12/21 04:42:08;;;;;;;2.17;1.10;;;8.20;99.90;;;;;;4128694;28;20190;-64
2022/12/21 04:44:09;;;;;;;4.60;4.37;;;8.30;99.90;;;;;;4129076;28;20712;-64
2022/12/21 04:46:14;;;;;;;1.97;1.30;;;8.30;99.90;;;;;;4128830;28;20661;-64
2022/12/21 04:48:16;;;;;;;3.47;3.17;;;8.30;99.90;;;;;;4129088;28;20194;-63
2022/12/21 04:50:16;;;;;;;2.67;1.30;;;8.20;99.90;;;;;;4129976;28;20652;-64
2022/12/21 04:52:17;;;;;;;1.90;1.57;;;8.20;99.90;;;;;;4129185;28;20265;-64
2022/12/21 04:54:18;;;;;;;3.50;1.60;;;8.20;99.90;;;;;;4099215;28;20184;-63
2022/12/21 04:56:19;;;;;;;3.03;1.43;;;8.20;99.90;;;;;;4095621;29;20597;-63
2022/12/21 04:58:20;;;;;;;3.53;1.70;;;8.20;99.90;;;;;;4112347;28;20207;-64
2022/12/21 05:00:21;;;;;;;2.33;1.40;;;8.30;99.90;;;;;;4113494;28;20621;-63
2022/12/21 05:02:22;;;;;;;1.83;1.60;;;8.30;99.90;;;;;;4128987;28;20289;-63
2022/12/21 05:04:23;;;;;;;2.00;1.40;;;8.20;99.90;;;;;;4128746;28;20203;-63
2022/12/21 05:06:23;;;;;;;2.90;1.37;;;8.30;99.90;;;;;;4128524;28;20182;-63
2022/12/21 05:08:24;;;;;;;2.00;1.77;;;8.30;99.90;;;;;;4128304;28;20213;-64
2022/12/21 05:10:25;;;;;;;3.90;1.30;;;8.30;99.90;;;;;;4128817;28;20183;-64
2022/12/21 05:12:25;;;;;;;1.90;1.30;;;8.20;99.90;;;;;;4128740;28;20189;-63
2022/12/21 05:14:26;;;;;;;3.93;1.50;;;8.30;99.90;;;;;;4128793;28;20561;-64
2022/12/21 05:16:27;;;;;;;3.47;1.70;;;8.30;99.90;;;;;;4128334;28;20190;-64
2022/12/21 05:18:28;;;;;;;1.73;1.10;;;8.30;99.90;;;;;;4128921;28;20229;-64
2022/12/21 05:20:28;;;;;;;1.33;1.20;;;8.30;99.90;;;;;;4128780;28;20179;-64
2022/12/21 05:22:29;;;;;;;2.83;1.40;;;8.40;99.90;;;;;;4111774;28;20194;-63
2022/12/21 05:24:30;;;;;;;4.60;3.23;;;8.30;99.90;;;;;;4128827;28;20236;-63
2022/12/21 05:26:30;;;;;;;2.20;1.30;;;8.20;99.90;;;;;;4128287;28;20178;-64
2022/12/21 05:28:31;;;;;;;3.30;1.20;;;8.30;99.90;;;;;;4121466;28;20245;-62
2022/12/21 05:30:33;;;;;;;2.00;1.90;;;8.30;99.90;;;;;;4120557;28;20658;-63
2022/12/21 05:32:34;;;;;;;2.33;1.13;;;8.30;99.90;;;;;;4128696;28;20178;-63
2022/12/21 05:34:34;;;;;;;1.20;1.10;;;8.40;99.90;;;;;;4129290;28;20186;-63
2022/12/21 05:36:35;;;;;;;2.30;1.40;;;8.40;99.90;;;;;;4131157;28;20209;-63
2022/12/21 05:38:36;;;;;;;1.47;1.00;;;8.40;99.90;;;;;;4131689;28;20197;-63
2022/12/21 05:40:37;;;;;;;1.47;0.97;;;8.40;99.90;;;;;;4114283;28;20198;-64
2022/12/21 05:42:37;;;;;;;2.73;2.50;;;8.40;99.90;;;;;;4131582;28;20278;-63
2022/12/21 05:44:38;;;;;;;1.23;1.13;;;8.40;99.90;;;;;;4131839;28;20228;-63
2022/12/21 05:46:39;;;;;;;3.47;1.30;;;8.40;99.90;;;;;;4131166;28;20186;-64
2022/12/21 05:48:39;;;;;;;1.07;0.93;;;8.30;99.90;;;;;;4131433;28;20198;-64
2022/12/21 05:50:41;;;;;;;3.77;1.17;;;8.40;99.90;;;;;;4131528;28;20281;-64
2022/12/21 05:52:41;;;;;;;2.00;1.67;;;8.40;99.90;;;;;;4131417;28;20196;-64
2022/12/21 05:54:42;;;;;;;2.17;1.90;;;8.40;99.90;;;;;;4131428;28;20182;-63
2022/12/21 05:56:43;;;;;;;2.97;1.90;;;8.40;99.90;;;;;;4130871;28;20240;-64
2022/12/21 05:58:43;;;;;;;3.43;1.33;;;8.40;99.90;;;;;;4131701;28;20214;-64
2022/12/21 06:00:44;;;;;;;2.57;2.27;;;8.40;99.90;;;;;;4131464;28;20218;-63
2022/12/21 06:02:45;;;;;;;2.07;1.77;;;8.40;99.90;;;;;;4131273;28;20197;-64
2022/12/21 06:04:45;;;;;;;2.67;2.00;;;8.40;99.90;;;;;;4131096;28;20644;-64
2022/12/21 06:06:46;;;;;;;5.97;2.50;;;8.40;99.90;;;;;;4130798;28;20183;-63
2022/12/21 06:08:47;;;;;;;2.87;1.60;;;8.40;99.90;;;;;;4131152;28;20244;-63
2022/12/21 06:10:48;;;;;;;7.13;2.57;;;8.30;99.90;;;;;;4131134;28;20186;-64
2022/12/21 06:12:48;;;;;;;2.07;1.20;;;8.40;99.90;;;;;;4131056;28;20195;-64
2022/12/21 06:14:49;;;;;;;3.57;1.50;;;8.50;99.90;;;;;;4131120;28;20560;-63
2022/12/21 06:16:50;;;;;;;2.27;1.80;;;8.40;99.90;;;;;;4130804;28;20594;-64
2022/12/21 06:18:51;;;;;;;3.77;1.70;;;8.30;99.90;;;;;;4131248;28;20293;-64
2022/12/21 06:20:52;;;;;;;1.77;1.53;;;8.20;99.90;;;;;;4113875;28;20195;-63
2022/12/21 06:22:52;;;;;;;2.43;1.70;;;8.20;99.90;;;;;;4113754;28;20219;-64
2022/12/21 06:24:53;;;;;;;1.70;1.00;;;8.20;99.90;;;;;;4131097;28;20575;-64
2022/12/21 06:26:54;;;;;;;2.27;1.80;;;8.20;99.90;;;;;;4130786;28;20225;-64
2022/12/21 06:28:54;;;;;;;2.87;1.27;;;8.10;99.90;;;;;;4131018;28;20201;-64
2022/12/21 06:31:02;;;;;;;4.63;2.30;;;8.20;99.90;;;;;;4131371;28;20225;-64
2022/12/21 06:33:02;;;;;;;4.13;2.20;;;8.20;99.90;;;;;;4131002;28;20174;-64
2022/12/21 06:35:05;;;;;;;4.77;3.07;;;8.20;99.90;;;;;;4131043;28;20190;-64
2022/12/21 06:37:06;;;;;;;4.03;2.40;;;8.30;99.90;;;;;;4130239;28;20740;-64
2022/12/21 06:39:07;;;;;;;5.10;3.30;;;8.30;99.90;;;;;;4130947;28;20644;-64
2022/12/21 06:41:11;;;;;;;5.63;3.00;;;8.00;99.90;;;;;;4130849;28;20223;-64
2022/12/21 06:43:12;;;;;;;3.90;3.20;;;7.90;99.90;;;;;;4130784;28;20186;-65
2022/12/21 06:45:13;;;;;;;6.17;2.63;;;7.90;99.90;;;;;;4113170;28;20215;-64
2022/12/21 06:47:13;;;;;;;4.40;3.17;;;7.70;99.90;;;;;;4129987;28;20182;-63
2022/12/21 06:49:14;;;;;;;4.07;3.07;;;7.60;99.90;;;;;;4132651;28;20224;-64
2022/12/21 06:51:21;;;;;;;2.60;2.03;;;7.60;99.90;;;;;;4136220;28;20237;-63
2022/12/21 06:53:29;;;;;;;4.87;2.70;;;7.50;99.90;;;;;;4130482;28;20167;-63
2022/12/21 06:55:30;;;;;;;2.87;2.23;;;7.70;99.90;;;;;;4127428;28;20281;-63
2022/12/21 06:57:33;;;;;;;3.90;2.70;;;7.60;99.90;;;;;;4130187;28;20234;-64
2022/12/21 06:59:36;;;;;;;3.13;2.40;;;7.40;99.90;;;;;;4130457;28;20608;-65
2022/12/21 07:01:36;;;;;;;2.10;1.60;;;7.30;99.90;;;;;;4130681;28;20182;-63
2022/12/21 07:03:39;;;;;;;5.50;2.57;;;7.20;99.90;;;;;;4130277;28;20197;-64
2022/12/21 07:05:39;;;;;;;3.37;2.67;;;7.20;99.90;;;;;;4130347;28;20182;-63
2022/12/21 07:07:40;;;;;;;4.47;2.30;;;7.30;99.90;;;;;;4129430;28;20619;-64
2022/12/21 07:09:40;;;;;;;3.03;2.27;;;7.40;99.90;;;;;;4130353;28;20600;-63
2022/12/21 07:11:42;;;;;;;6.63;2.57;;;7.40;99.90;;;;;;4112868;28;20443;-64
2022/12/21 07:13:45;;;;;;;3.57;2.23;;;7.40;99.90;;;;;;4112888;28;20201;-65
2022/12/21 07:15:46;;;;;;;5.77;2.93;;;7.40;99.90;;;;;;4112839;28;20192;-64
2022/12/21 07:17:47;;;;;;;3.03;2.20;;;7.40;99.90;;;;;;4129610;28;20231;-64
2022/12/21 07:19:48;;;;;;;3.20;2.50;;;7.20;99.90;;;;;;4130250;28;20187;-64
2022/12/21 07:21:48;;;;;;;3.27;2.33;;;7.10;99.90;;;;;;4130072;28;20183;-64
2022/12/21 07:23:49;;;;;;;4.93;2.63;;;7.10;99.90;;;;;;4130121;28;20186;-64
2022/12/21 07:25:50;;;;;;;4.93;2.60;;;7.10;99.90;;;;;;4130081;28;20182;-64
2022/12/21 07:27:50;;;;;;;4.33;2.70;;;7.00;99.90;;;;;;4129242;28;20205;-63
2022/12/21 07:29:51;;;;;;;3.83;2.60;;;7.00;99.90;;;;;;4129925;28;20182;-64
2022/12/21 07:31:52;;;;;;;3.63;2.50;;;7.00;99.90;;;;;;4129857;28;20660;-64
2022/12/21 07:33:52;;;;;;;4.40;2.80;;;7.00;99.90;;;;;;4112571;28;20707;-65
2022/12/21 07:36:01;;;;;;;8.70;3.33;;;7.10;99.90;;;;;;4112386;28;20756;-64
2022/12/21 07:38:01;;;;;;;4.50;2.97;;;7.00;99.90;;;;;;4129059;28;20696;-64
2022/12/21 07:40:04;;;;;;;5.20;2.90;;;6.90;99.90;;;;;;4129620;28;20187;-64
2022/12/21 07:42:05;;;;;;;4.70;3.17;;;7.00;99.90;;;;;;4129653;28;20184;-64
2022/12/21 07:44:06;;;;;;;7.80;3.77;;;6.90;99.90;;;;;;4112073;28;20497;-64
2022/12/21 07:46:07;;;;;;;6.70;3.93;;;7.00;99.90;;;;;;4129665;28;20248;-63
2022/12/21 07:48:08;;;;;;;4.83;3.33;;;7.00;99.90;;;;;;4128908;28;20194;-64
2022/12/21 07:50:09;;;;;;;6.00;3.90;;;6.80;99.90;;;;;;4129711;28;20201;-64
2022/12/21 07:52:09;;;;;;;7.07;3.90;;;6.80;99.90;;;;;;4129422;28;20194;-64
2022/12/21 07:54:10;;;;;;;7.87;4.17;;;6.80;99.90;;;;;;4129531;28;20677;-64
2022/12/21 07:56:15;;;;;;;6.43;4.20;;;6.70;99.90;;;;;;4129417;28;20200;-64
2022/12/21 07:58:16;;;;;;;8.63;5.27;;;6.60;99.90;;;;;;4127927;28;20210;-63
2022/12/21 08:00:17;;;;;;;7.87;4.90;;;6.60;99.90;;;;;;4129514;28;20920;-64
2022/12/21 08:02:18;;;;;;;13.37;5.97;;;6.60;99.90;;;;;;4112612;28;20191;-64
2022/12/21 08:04:19;;;;;;;16.17;5.63;;;6.60;99.90;;;;;;4129375;28;20514;-64
2022/12/21 08:06:20;;;;;;;9.67;5.13;;;6.50;99.90;;;;;;4128915;28;20177;-64
2022/12/21 08:08:21;;;;;;;8.47;5.10;;;6.50;99.90;;;;;;4112071;28;20221;-64
2022/12/21 08:10:21;;;;;;;12.33;5.20;;;6.50;99.90;;;;;;4129307;28;20913;-64
2022/12/21 08:12:22;;;;;;;8.43;5.13;;;6.50;99.90;;;;;;4112288;28;20611;-65
2022/12/21 08:14:23;;;;;;;6.00;3.20;;;6.40;99.90;;;;;;4129339;28;20213;-63
2022/12/21 08:16:23;;;;;;;6.03;4.23;;;6.60;99.90;;;;;;4128745;28;20198;-64
2022/12/21 08:18:24;;;;;;;8.60;5.37;;;6.80;99.90;;;;;;4128990;28;20234;-64
2022/12/21 08:20:25;;;;;;;5.77;4.17;;;6.90;99.90;;;;;;4129009;28;20245;-65
2022/12/21 08:22:25;;;;;;;10.83;4.70;;;6.90;99.90;;;;;;4129146;28;20194;-64
2022/12/21 08:24:27;;;;;;;6.80;4.13;;;7.00;99.90;;;;;;4129123;28;20213;-64
2022/12/21 08:26:28;;;;;;;6.73;3.70;;;7.10;99.90;;;;;;4128723;28;20197;-64
2022/12/21 08:28:29;;;;;;;4.50;2.87;;;7.20;99.90;;;;;;4129136;28;20206;-64
2022/12/21 08:30:30;;;;;;;4.63;3.20;;;7.30;99.90;;;;;;4111822;28;20210;-63
2022/12/21 08:32:30;;;;;;;6.03;3.60;;;7.40;99.90;;;;;;4111604;28;20292;-64
2022/12/21 08:34:31;;;;;;;5.37;3.60;;;7.50;99.90;;;;;;4129034;28;20994;-65
2022/12/21 08:36:32;;;;;;;10.93;4.00;;;7.50;99.90;;;;;;4128498;28;20236;-64
2022/12/21 08:38:33;;;;;;;7.13;4.27;;;7.40;99.90;;;;;;4129201;28;20202;-64
2022/12/21 08:40:33;;;;;;;6.07;3.90;;;7.40;99.90;;;;;;4129118;28;20185;-65
2022/12/21 08:42:34;;;;;;;7.17;4.10;;;7.40;99.90;;;;;;4129259;28;20186;-64
2022/12/21 08:44:35;;;;;;;5.17;3.30;;;7.30;99.90;;;;;;4129343;28;20212;-64
2022/12/21 08:46:35;;;;;;;7.37;3.97;;;7.30;99.90;;;;;;4128736;28;20182;-64
2022/12/21 08:48:37;;;;;;;7.03;4.00;;;7.30;99.90;;;;;;4111924;28;20602;-65
2022/12/21 08:50:38;;;;;;;6.93;4.00;;;7.30;99.90;;;;;;4135436;28;20223;-64
2022/12/21 08:52:38;;;;;;;8.00;4.40;;;7.20;99.90;;;;;;4117719;28;20187;-64
2022/12/21 08:54:39;;;;;;;6.33;3.83;;;7.20;99.90;;;;;;4118899;28;20558;-64
2022/12/21 08:56:40;;;;;;;8.83;4.97;;;7.10;99.90;;;;;;4112548;28;21035;-64
2022/12/21 08:58:41;;;;;;;9.43;4.97;;;7.20;99.90;;;;;;4113070;28;20266;-63
2022/12/21 09:00:44;;;;;;;8.37;4.73;;;7.10;99.90;;;;;;4113043;28;20221;-64
2022/12/21 09:02:45;;;;;;;7.93;5.00;;;7.20;99.90;;;;;;4113074;28;20193;-64
2022/12/21 09:04:46;;;;;;;6.27;4.23;;;7.30;99.90;;;;;;4122390;28;20210;-65
2022/12/21 09:06:46;;;;;;;5.40;3.70;;;7.30;99.90;;;;;;4128391;28;20182;-64
2022/12/21 09:08:47;;;;;;;6.37;4.30;;;7.50;99.90;;;;;;4129843;28;20210;-63
2022/12/21 09:10:48;;;;;;;4.37;3.03;;;7.50;99.90;;;;;;4114857;28;20176;-65
2022/12/21 09:12:49;;;;;;;7.57;4.60;;;7.70;99.90;;;;;;4114928;28;20195;-65
2022/12/21 09:14:49;;;;;;;6.70;4.30;;;7.60;99.90;;;;;;4132098;28;20196;-66
2022/12/21 09:16:50;;;;;;;6.10;4.30;;;7.80;99.90;;;;;;4131580;28;20209;-65
2022/12/21 09:18:51;;;;;;;6.00;3.70;;;7.80;99.90;;;;;;4114729;28;20242;-65
2022/12/21 09:20:54;;;;;;;8.73;4.60;;;7.80;99.90;;;;;;4114552;28;20220;-65
2022/12/21 09:22:55;;;;;;;6.93;4.67;;;8.00;99.90;;;;;;4131857;28;20193;-65
2022/12/21 09:24:55;;;;;;;4.43;3.43;;;8.30;99.90;;;;;;4132034;28;20275;-65
2022/12/21 09:26:56;;;;;;;6.50;4.13;;;8.30;99.90;;;;;;4114056;28;20198;-64
2022/12/21 09:28:57;;;;;;;7.77;4.23;;;8.40;99.90;;;;;;4131943;28;20282;-64
2022/12/21 09:31:16;;;;;;;5.87;3.43;;;8.50;99.90;;;;;;4131870;28;20240;-65
2022/12/21 09:33:17;;;;;;;6.23;3.67;;;8.50;99.90;;;;;;4131779;28;20188;-65
2022/12/21 09:35:18;;;;;;;5.10;3.20;;;8.60;99.90;;;;;;4131706;28;20221;-65
2022/12/21 09:37:18;;;;;;;5.97;3.83;;;8.60;99.90;;;;;;4130985;28;20225;-65
2022/12/21 09:39:19;;;;;;;4.37;3.13;;;8.60;99.90;;;;;;4114472;28;20222;-65
2022/12/21 09:41:52;;;;;;;4.70;3.77;;;8.60;99.90;;;;;;4131512;28;20657;-64
2022/12/21 09:44:20;;;;;;;4.57;2.97;;;8.80;99.90;;;;;;4108916;28;20238;-65
2022/12/21 09:46:21;;;;;;;7.73;5.90;;;8.80;99.90;;;;;;4131136;28;20201;-64
2022/12/21 09:48:30;;;;;;;4.63;3.70;;;8.90;99.90;;;;;;4113839;28;20909;-65
2022/12/21 09:50:42;;;;;;;6.77;4.27;;;9.00;99.90;;;;;;4114065;28;20194;-65
2022/12/21 09:52:47;;;;;;;8.17;5.97;;;9.20;99.90;;;;;;4114160;28;20251;-64
2022/12/21 09:55:02;;;;;;;5.03;3.70;;;9.40;99.90;;;;;;4114161;28;20175;-64
2022/12/21 09:57:06;;;;;;;2.80;2.47;;;9.40;99.90;;;;;;4130811;28;20181;-65
2022/12/21 09:59:13;;;;;;;4.23;2.30;;;9.20;99.90;;;;;;4114109;28;20219;-63
2022/12/21 10:01:54;;;;;;;3.80;2.30;;;9.30;99.90;;;;;;4113922;28;20186;-65
2022/12/21 10:04:10;;;;;;;4.90;3.03;;;9.40;99.90;;;;;;4131220;28;20171;-64
2022/12/21 10:06:41;;;;;;;10.47;7.73;;;9.40;99.90;;;;;;4131239;28;20194;-64
2022/12/21 10:09:25;;;;;;;6.20;4.37;;;9.40;99.90;;;;;;4131023;28;20244;-65
2022/12/21 10:11:58;;;;;;;9.10;4.17;;;9.40;99.90;;;;;;4113971;28;20190;-65
2022/12/21 10:14:34;;;;;;;4.67;2.47;;;9.30;99.90;;;;;;4131266;28;20181;-65
2022/12/21 10:16:41;;;;;;;2.40;2.13;;;9.00;99.90;;;;;;4113188;28;20194;-65
2022/12/21 10:19:07;;;;;;;4.30;1.70;;;8.70;99.90;;;;;;4114060;28;20219;-65
2022/12/21 10:21:38;;;;;;;0.63;0.63;;;8.50;99.90;;;;;;4113027;28;20571;-65
2022/12/21 10:23:45;;;;;;;1.63;1.20;;;8.50;99.90;;;;;;4130922;28;20198;-64
2022/12/21 10:25:57;;;;;;;2.77;2.00;;;8.60;99.90;;;;;;4113607;28;20199;-64
2022/12/21 10:28:26;;;;;;;7.63;4.20;;;8.80;99.90;;;;;;4112961;28;20305;-65
2022/12/21 10:30:29;;;;;;;1.43;1.00;;;9.10;99.90;;;;;;4131152;28;20545;-65
2022/12/21 10:32:34;;;;;;;1.60;1.20;;;9.20;99.90;;;;;;4113412;28;20716;-64
2022/12/21 10:34:36;;;;;;;2.17;2.07;;;9.20;99.90;;;;;;4130778;28;20186;-65
2022/12/21 10:36:37;;;;;;;3.03;1.80;;;9.20;99.90;;;;;;4130132;28;20240;-63
2022/12/21 10:38:38;;;;;;;2.93;1.40;;;9.30;99.90;;;;;;4130984;28;20731;-64
2022/12/21 10:40:39;;;;;;;1.20;1.00;;;9.30;99.90;;;;;;4113247;28;20210;-65
2022/12/21 10:42:44;;;;;;;0.90;0.90;;;9.50;99.90;;;;;;4097309;29;20180;-64
2022/12/21 10:44:47;;;;;;;1.23;1.00;;;9.60;99.90;;;;;;4113160;28;20191;-65
2022/12/21 10:46:48;;;;;;;1.40;1.30;;;10.10;99.90;;;;;;4112527;28;20194;-64
2022/12/21 10:48:55;;;;;;;3.50;1.00;;;10.70;99.90;;;;;;4130904;28;20206;-65
2022/12/21 10:51:25;;;;;;;1.87;0.80;;;11.30;99.90;;;;;;4135119;28;20166;-64
2022/12/21 10:53:27;;;;;;;1.03;0.93;;;12.00;99.90;;;;;;4130248;28;20184;-65
2022/12/21 10:55:34;;;;;;;1.67;0.93;;;12.60;97.30;;;;;;4099500;28;20191;-65
2022/12/21 10:57:35;;;;;;;2.57;1.97;;;13.00;95.50;;;;;;4113580;28;20212;-65
2022/12/21 10:59:40;;;;;;;2.07;1.50;;;13.50;94.90;;;;;;4114432;28;20190;-65
2022/12/21 11:01:41;;;;;;;2.53;1.50;;;13.90;93.30;;;;;;4114563;28;20992;-65
2022/12/21 11:03:42;;;;;;;7.67;3.50;;;14.00;90.90;;;;;;4116786;28;20221;-65
2022/12/21 11:05:43;;;;;;;1.50;1.10;;;13.40;93.50;;;;;;4130330;28;20214;-65
2022/12/21 11:07:44;;;;;;;2.20;1.07;;;13.10;93.30;;;;;;4130089;28;20210;-66
2022/12/21 11:10:02;;;;;;;1.17;0.80;;;12.50;94.20;;;;;;4130624;28;20739;-65
2022/12/21 11:12:21;;;;;;;0.97;0.87;;;11.70;96.20;;;;;;4112927;28;20206;-65
2022/12/21 11:14:23;;;;;;;2.70;1.00;;;11.40;97.90;;;;;;4113085;28;20183;-66
2022/12/21 11:16:32;;;;;;;0.80;0.70;;;11.60;99.20;;;;;;4129879;28;20182;-66
2022/12/21 11:18:49;;;;;;;0.70;0.60;;;11.90;96.80;;;;;;4130302;28;20209;-65